sensor_id;sensor_type;location;lat;lon;timestamp;pressure;altitude;pressure_sealevel;temperature;humidity
60099;BME280;62818;49.394;8.686;2024-03-02T00:01:48;99216.06;;;8.85;100.00
60099;BME280;62818;49.394;8.686;2024-03-02T00:06:50;99209.16;;;8.84;100.00
60099;BME280;62818;49.394;8.686;2024-03-02T00:11:52;99210.81;;;8.37;100.00
60099;BME280;62818;49.394;8.686;2024-03-02T00:16:54;99208.00;;;8.93;100.00
60099;BME280;62818;49.394;8.686;2024-03-02T00:21:55;99204.47;;;9.14;100.00
60099;BME280;62818;49.394;8.686;2024-03-02T00:26:56;99197.13;;;9.10;100.00
60099;BME280;62818;49.394;8.686;2024-03-02T00:31:57;99195.75;;;8.16;100.00
60099;BME280;62818;49.394;8.686;2024-03-02T00:36:58;99191.69;;;8.90;100.00
60099;BME280;62818;49.394;8.686;2024-03-02T00:42:00;99202.53;;;9.02;100.00
60099;BME280;62818;49.394;8.686;2024-03-02T00:47:00;99205.78;;;8.69;100.00
60099;BME280;62818;49.394;8.686;2024-03-02T00:52:01;99211.84;;;8.63;100.00
60099;BME280;62818;49.394;8.686;2024-03-02T00:57:02;99208.72;;;8.81;100.00
60099;BME280;62818;49.394;8.686;2024-03-02T01:02:02;99202.97;;;9.39;100.00
60099;BME280;62818;49.394;8.686;2024-03-02T01:07:03;99208.00;;;8.93;100.00
60099;BME280;62818;49.394;8.686;2024-03-02T01:12:04;99209.72;;;8.52;100.00
60099;BME280;62818;49.394;8.686;2024-03-02T01:17:04;99208.13;;;8.58;100.00
60099;BME280;62818;49.394;8.686;2024-03-02T01:22:05;99212.94;;;9.03;100.00
60099;BME280;62818;49.394;8.686;2024-03-02T01:27:06;99224.00;;;8.37;100.00
60099;BME280;62818;49.394;8.686;2024-03-02T01:32:06;99225.94;;;8.49;100.00
60099;BME280;62818;49.394;8.686;2024-03-02T01:37:07;99217.59;;;7.53;100.00
60099;BME280;62818;49.394;8.686;2024-03-02T01:42:07;99215.16;;;7.22;100.00
60099;BME280;62818;49.394;8.686;2024-03-02T01:47:08;99209.09;;;8.29;100.00
60099;BME280;62818;49.394;8.686;2024-03-02T01:52:08;99199.78;;;8.33;100.00
60099;BME280;62818;49.394;8.686;2024-03-02T01:57:09;99192.47;;;8.56;100.00
60099;BME280;62818;49.394;8.686;2024-03-02T02:02:10;99194.91;;;8.79;100.00
60099;BME280;62818;49.394;8.686;2024-03-02T02:07:11;99189.28;;;7.97;100.00
60099;BME280;62818;49.394;8.686;2024-03-02T02:12:11;99179.47;;;8.82;100.00
60099;BME280;62818;49.394;8.686;2024-03-02T02:17:12;99182.59;;;8.22;100.00
60099;BME280;62818;49.394;8.686;2024-03-02T02:22:12;99167.22;;;7.84;100.00
60099;BME280;62818;49.394;8.686;2024-03-02T02:27:13;99161.19;;;7.90;100.00
60099;BME280;62818;49.394;8.686;2024-03-02T02:32:15;99167.97;;;7.42;100.00
60099;BME280;62818;49.394;8.686;2024-03-02T02:37:15;99161.06;;;8.40;100.00
60099;BME280;62818;49.394;8.686;2024-03-02T02:42:16;99163.06;;;7.75;100.00
60099;BME280;62818;49.394;8.686;2024-03-02T02:47:16;99150.75;;;8.45;100.00
60099;BME280;62818;49.394;8.686;2024-03-02T02:52:17;99157.78;;;7.75;100.00
60099;BME280;62818;49.394;8.686;2024-03-02T02:57:18;99142.97;;;7.95;100.00
60099;BME280;62818;49.394;8.686;2024-03-02T03:02:19;99150.34;;;7.28;100.00
60099;BME280;62818;49.394;8.686;2024-03-02T03:07:19;99153.00;;;7.64;100.00
60099;BME280;62818;49.394;8.686;2024-03-02T03:12:19;99143.22;;;7.43;100.00
60099;BME280;62818;49.394;8.686;2024-03-02T03:17:21;99149.50;;;7.99;100.00
60099;BME280;62818;49.394;8.686;2024-03-02T03:22:22;99148.38;;;8.29;100.00
60099;BME280;62818;49.394;8.686;2024-03-02T03:27:23;99144.59;;;7.75;100.00
60099;BME280;62818;49.394;8.686;2024-03-02T03:32:23;99137.38;;;6.53;100.00
60099;BME280;62818;49.394;8.686;2024-03-02T03:37:24;99127.47;;;7.49;100.00
60099;BME280;62818;49.394;8.686;2024-03-02T03:42:27;99136.69;;;6.74;100.00
60099;BME280;62818;49.394;8.686;2024-03-02T03:47:28;99128.59;;;7.05;100.00
60099;BME280;62818;49.394;8.686;2024-03-02T03:52:28;99118.59;;;8.14;100.00
60099;BME280;62818;49.394;8.686;2024-03-02T03:57:29;99129.22;;;7.99;100.00
60099;BME280;62818;49.394;8.686;2024-03-02T04:02:29;99127.03;;;7.82;100.00
60099;BME280;62818;49.394;8.686;2024-03-02T04:07:30;99136.03;;;7.01;100.00
60099;BME280;62818;49.394;8.686;2024-03-02T04:12:30;99126.38;;;8.43;100.00
60099;BME280;62818;49.394;8.686;2024-03-02T04:17:32;99137.06;;;7.93;100.00
60099;BME280;62818;49.394;8.686;2024-03-02T04:22:34;99137.75;;;8.44;100.00
60099;BME280;62818;49.394;8.686;2024-03-02T04:27:35;99135.75;;;8.03;100.00
60099;BME280;62818;49.394;8.686;2024-03-02T04:32:35;99132.53;;;7.66;100.00
60099;BME280;62818;49.394;8.686;2024-03-02T04:37:36;99133.25;;;8.44;100.00
60099;BME280;62818;49.394;8.686;2024-03-02T04:42:36;99131.31;;;7.11;100.00
60099;BME280;62818;49.394;8.686;2024-03-02T04:47:39;99125.13;;;8.39;100.00
60099;BME280;62818;49.394;8.686;2024-03-02T04:52:40;99129.84;;;6.80;100.00
60099;BME280;62818;49.394;8.686;2024-03-02T04:57:40;99135.03;;;7.53;100.00
60099;BME280;62818;49.394;8.686;2024-03-02T05:02:41;99134.47;;;7.21;100.00
60099;BME280;62818;49.394;8.686;2024-03-02T05:07:44;99141.53;;;7.35;100.00
60099;BME280;62818;49.394;8.686;2024-03-02T05:12:44;99157.81;;;8.17;100.00
60099;BME280;62818;49.394;8.686;2024-03-02T05:17:45;99166.28;;;6.76;100.00
60099;BME280;62818;49.394;8.686;2024-03-02T05:22:46;99172.34;;;7.06;100.00
60099;BME280;62818;49.394;8.686;2024-03-02T05:27:47;99170.22;;;8.02;100.00
60099;BME280;62818;49.394;8.686;2024-03-02T05:32:47;99183.31;;;6.28;100.00
60099;BME280;62818;49.394;8.686;2024-03-02T05:37:48;99173.00;;;6.93;100.00
60099;BME280;62818;49.394;8.686;2024-03-02T05:42:48;99184.06;;;8.04;100.00
60099;BME280;62818;49.394;8.686;2024-03-02T05:47:49;99185.16;;;6.65;100.00
60099;BME280;62818;49.394;8.686;2024-03-02T05:52:49;99179.38;;;7.64;100.00
60099;BME280;62818;49.394;8.686;2024-03-02T05:57:50;99183.03;;;7.48;100.00
60099;BME280;62818;49.394;8.686;2024-03-02T06:03:13;99173.00;;;6.93;100.00
60099;BME280;62818;49.394;8.686;2024-03-02T06:08:14;99173.19;;;6.40;100.00
60099;BME280;62818;49.394;8.686;2024-03-02T06:13:14;99172.63;;;6.82;100.00
60099;BME280;62818;49.394;8.686;2024-03-02T06:18:15;99172.84;;;7.45;100.00
60099;BME280;62818;49.394;8.686;2024-03-02T06:23:15;99184.38;;;7.59;100.00
60099;BME280;62818;49.394;8.686;2024-03-02T06:28:19;99199.66;;;6.01;100.00
60099;BME280;62818;49.394;8.686;2024-03-02T06:33:19;99200.88;;;6.36;100.00
60099;BME280;62818;49.394;8.686;2024-03-02T06:38:20;99202.34;;;7.70;100.00
60099;BME280;62818;49.394;8.686;2024-03-02T06:43:21;99211.78;;;6.85;100.00
60099;BME280;62818;49.394;8.686;2024-03-02T06:48:24;99211.09;;;6.68;100.00
60099;BME280;62818;49.394;8.686;2024-03-02T06:53:25;99208.66;;;6.07;100.00
60099;BME280;62818;49.394;8.686;2024-03-02T06:58:25;99206.72;;;6.01;100.00
60099;BME280;62818;49.394;8.686;2024-03-02T07:03:26;99205.69;;;8.35;100.00
60099;BME280;62818;49.394;8.686;2024-03-02T07:08:29;99204.78;;;8.98;100.00
60099;BME280;62818;49.394;8.686;2024-03-02T07:13:29;99202.91;;;8.64;100.00
60099;BME280;62818;49.394;8.686;2024-03-02T07:18:33;99205.25;;;9.15;100.00
60099;BME280;62818;49.394;8.686;2024-03-02T07:23:45;99218.69;;;7.44;100.00
60099;BME280;62818;49.394;8.686;2024-03-02T07:28:46;99213.72;;;9.04;100.00
60099;BME280;62818;49.394;8.686;2024-03-02T07:33:48;99208.03;;;8.72;100.00
60099;BME280;62818;49.394;8.686;2024-03-02T07:38:49;99213.69;;;8.97;100.00
60099;BME280;62818;49.394;8.686;2024-03-02T07:43:52;99206.50;;;9.19;100.00
60099;BME280;62818;49.394;8.686;2024-03-02T07:48:52;99223.59;;;8.61;100.00
60099;BME280;62818;49.394;8.686;2024-03-02T07:53:55;99225.72;;;9.34;100.00
60099;BME280;62818;49.394;8.686;2024-03-02T07:58:56;99234.16;;;9.50;100.00
60099;BME280;62818;49.394;8.686;2024-03-02T08:04:01;99238.19;;;10.00;100.00
60099;BME280;62818;49.394;8.686;2024-03-02T08:09:03;99231.28;;;14.03;100.00
60099;BME280;62818;49.394;8.686;2024-03-02T08:14:09;99227.03;;;14.43;100.00
60099;BME280;62818;49.394;8.686;2024-03-02T08:19:09;99232.34;;;14.84;100.00
60099;BME280;62818;49.394;8.686;2024-03-02T08:24:10;99231.88;;;15.34;100.00
60099;BME280;62818;49.394;8.686;2024-03-02T08:29:10;99245.78;;;15.71;100.00
60099;BME280;62818;49.394;8.686;2024-03-02T08:34:12;99244.47;;;16.13;100.00
60099;BME280;62818;49.394;8.686;2024-03-02T08:39:12;99242.06;;;14.79;100.00
60099;BME280;62818;49.394;8.686;2024-03-02T08:44:16;99237.44;;;14.74;100.00
60099;BME280;62818;49.394;8.686;2024-03-02T08:49:17;99227.19;;;12.36;100.00
60099;BME280;62818;49.394;8.686;2024-03-02T08:54:17;99236.78;;;15.02;100.00
60099;BME280;62818;49.394;8.686;2024-03-02T08:59:17;99229.81;;;15.13;98.26
60099;BME280;62818;49.394;8.686;2024-03-02T09:04:18;99230.81;;;15.98;99.00
60099;BME280;62818;49.394;8.686;2024-03-02T09:09:18;99226.84;;;14.27;100.00
60099;BME280;62818;49.394;8.686;2024-03-02T09:14:19;99231.00;;;14.52;100.00
60099;BME280;62818;49.394;8.686;2024-03-02T09:19:19;99220.13;;;15.98;94.66
60099;BME280;62818;49.394;8.686;2024-03-02T09:24:20;99218.91;;;16.17;95.69
60099;BME280;62818;49.394;8.686;2024-03-02T09:29:20;99222.00;;;16.54;92.11
60099;BME280;62818;49.394;8.686;2024-03-02T09:34:21;99217.00;;;13.97;95.96
60099;BME280;62818;49.394;8.686;2024-03-02T09:39:22;99225.63;;;14.29;96.87
60099;BME280;62818;49.394;8.686;2024-03-02T09:44:23;99223.88;;;15.45;98.42
60099;BME280;62818;49.394;8.686;2024-03-02T09:49:25;99219.91;;;15.25;92.84
60099;BME280;62818;49.394;8.686;2024-03-02T09:54:25;99213.78;;;17.10;86.75
60099;BME280;62818;49.394;8.686;2024-03-02T09:59:26;99213.47;;;16.12;88.58
60099;BME280;62818;49.394;8.686;2024-03-02T10:04:29;99207.56;;;15.70;87.00
60099;BME280;62818;49.394;8.686;2024-03-02T10:09:33;99214.06;;;17.30;81.60
60099;BME280;62818;49.394;8.686;2024-03-02T10:14:34;99208.31;;;15.54;83.36
60099;BME280;62818;49.394;8.686;2024-03-02T10:19:35;99199.72;;;15.92;89.37
60099;BME280;62818;49.394;8.686;2024-03-02T10:24:42;99193.53;;;16.64;84.58
60099;BME280;62818;49.394;8.686;2024-03-02T10:29:47;99190.69;;;16.09;81.43
60099;BME280;62818;49.394;8.686;2024-03-02T10:34:48;99191.50;;;16.10;78.99
60099;BME280;62818;49.394;8.686;2024-03-02T10:39:52;99198.56;;;16.94;80.20
60099;BME280;62818;49.394;8.686;2024-03-02T10:44:52;99188.50;;;16.68;80.55
60099;BME280;62818;49.394;8.686;2024-03-02T10:49:54;99191.63;;;18.23;75.39
60099;BME280;62818;49.394;8.686;2024-03-02T10:54:59;99195.75;;;18.62;72.17
60099;BME280;62818;49.394;8.686;2024-03-02T11:00:02;99184.47;;;16.65;75.43
60099;BME280;62818;49.394;8.686;2024-03-02T11:05:06;99172.25;;;19.21;67.65
60099;BME280;62818;49.394;8.686;2024-03-02T11:10:09;99185.09;;;18.72;62.81
60099;BME280;62818;49.394;8.686;2024-03-02T11:15:15;99191.75;;;19.01;57.66
60099;BME280;62818;49.394;8.686;2024-03-02T11:20:20;99179.69;;;19.51;55.00
60099;BME280;62818;49.394;8.686;2024-03-02T11:25:25;99172.38;;;18.31;59.26
60099;BME280;62818;49.394;8.686;2024-03-02T11:35:52;99149.59;;;18.07;59.61
60099;BME280;62818;49.394;8.686;2024-03-02T11:40:52;99136.16;;;19.59;54.89
60099;BME280;62818;49.394;8.686;2024-03-02T11:45:57;99133.00;;;19.67;56.52
60099;BME280;62818;49.394;8.686;2024-03-02T11:51:00;99127.31;;;19.06;52.14
60099;BME280;62818;49.394;8.686;2024-03-02T11:56:01;99121.53;;;19.30;55.63
60099;BME280;62818;49.394;8.686;2024-03-02T12:01:02;99113.03;;;19.48;54.01
60099;BME280;62818;49.394;8.686;2024-03-02T12:06:03;99104.72;;;18.24;57.13
60099;BME280;62818;49.394;8.686;2024-03-02T12:11:04;99102.69;;;20.47;52.28
60099;BME280;62818;49.394;8.686;2024-03-02T12:16:06;99093.50;;;18.32;54.52
60099;BME280;62818;49.394;8.686;2024-03-02T12:21:07;99083.47;;;18.91;53.71
60099;BME280;62818;49.394;8.686;2024-03-02T12:26:08;99076.34;;;19.16;57.40
60099;BME280;62818;49.394;8.686;2024-03-02T12:31:09;99082.50;;;20.44;54.86
60099;BME280;62818;49.394;8.686;2024-03-02T12:36:10;99075.22;;;19.94;56.06
60099;BME280;62818;49.394;8.686;2024-03-02T12:41:15;99075.66;;;19.36;54.14
60099;BME280;62818;49.394;8.686;2024-03-02T12:46:16;99069.78;;;20.85;50.06
60099;BME280;62818;49.394;8.686;2024-03-02T12:51:16;99053.03;;;20.98;49.76
60099;BME280;62818;49.394;8.686;2024-03-02T12:56:17;99058.06;;;19.13;52.52
60099;BME280;62818;49.394;8.686;2024-03-02T13:01:17;99047.25;;;20.36;50.18
60099;BME280;62818;49.394;8.686;2024-03-02T13:06:19;99049.16;;;19.08;50.80
60099;BME280;62818;49.394;8.686;2024-03-02T13:11:22;99037.41;;;18.62;53.85
60099;BME280;62818;49.394;8.686;2024-03-02T13:16:23;99055.78;;;18.12;53.85
60099;BME280;62818;49.394;8.686;2024-03-02T13:21:26;99039.84;;;18.69;57.35
60099;BME280;62818;49.394;8.686;2024-03-02T13:26:26;99032.19;;;20.10;52.83
60099;BME280;62818;49.394;8.686;2024-03-02T13:31:27;99031.09;;;18.83;57.08
60099;BME280;62818;49.394;8.686;2024-03-02T13:36:28;99028.88;;;18.33;58.50
60099;BME280;62818;49.394;8.686;2024-03-02T13:41:28;99018.31;;;17.58;59.10
60099;BME280;62818;49.394;8.686;2024-03-02T13:46:30;99005.25;;;18.77;56.73
60099;BME280;62818;49.394;8.686;2024-03-02T13:51:30;99012.81;;;18.85;55.93
60099;BME280;62818;49.394;8.686;2024-03-02T13:56:32;99012.34;;;18.98;54.93
60099;BME280;62818;49.394;8.686;2024-03-02T14:01:33;98997.75;;;18.79;56.11
60099;BME280;62818;49.394;8.686;2024-03-02T14:06:33;99001.81;;;19.89;53.13
60099;BME280;62818;49.394;8.686;2024-03-02T14:11:34;98993.44;;;18.73;56.42
60099;BME280;62818;49.394;8.686;2024-03-02T14:16:35;98988.28;;;19.34;54.30
60099;BME280;62818;49.394;8.686;2024-03-02T14:21:36;98981.56;;;18.22;57.80
60099;BME280;62818;49.394;8.686;2024-03-02T14:26:36;98987.28;;;17.62;58.33
60099;BME280;62818;49.394;8.686;2024-03-02T14:31:37;98974.72;;;17.41;59.06
60099;BME280;62818;49.394;8.686;2024-03-02T14:36:37;98973.38;;;18.44;57.83
60099;BME280;62818;49.394;8.686;2024-03-02T14:41:38;98962.34;;;18.87;57.37
60099;BME280;62818;49.394;8.686;2024-03-02T14:46:39;98958.19;;;17.49;58.49
60099;BME280;62818;49.394;8.686;2024-03-02T14:51:39;98943.09;;;19.05;57.55
60099;BME280;62818;49.394;8.686;2024-03-02T14:56:40;98939.03;;;19.03;58.55
60099;BME280;62818;49.394;8.686;2024-03-02T15:01:41;98939.75;;;18.73;57.19
60099;BME280;62818;49.394;8.686;2024-03-02T15:06:42;98942.59;;;17.41;61.47
60099;BME280;62818;49.394;8.686;2024-03-02T15:11:43;98924.75;;;17.84;59.80
60099;BME280;62818;49.394;8.686;2024-03-02T15:16:44;98929.84;;;16.73;63.04
60099;BME280;62818;49.394;8.686;2024-03-02T15:21:44;98911.88;;;16.09;64.87
60099;BME280;62818;49.394;8.686;2024-03-02T15:26:45;98911.88;;;16.69;65.23
60099;BME280;62818;49.394;8.686;2024-03-02T15:31:46;98904.72;;;15.76;66.87
60099;BME280;62818;49.394;8.686;2024-03-02T15:36:46;98893.66;;;16.06;68.07
60099;BME280;62818;49.394;8.686;2024-03-02T15:41:47;98893.34;;;16.02;68.28
60099;BME280;62818;49.394;8.686;2024-03-02T15:46:47;98897.47;;;16.31;68.41
60099;BME280;62818;49.394;8.686;2024-03-02T15:51:47;98905.44;;;15.72;69.71
60099;BME280;62818;49.394;8.686;2024-03-02T15:56:48;98898.13;;;16.00;70.35
60099;BME280;62818;49.394;8.686;2024-03-02T16:01:49;98898.66;;;15.64;71.63
60099;BME280;62818;49.394;8.686;2024-03-02T16:06:49;98896.06;;;15.86;71.56
60099;BME280;62818;49.394;8.686;2024-03-02T16:11:49;98897.00;;;15.30;72.38
60099;BME280;62818;49.394;8.686;2024-03-02T16:16:51;98890.69;;;15.19;74.44
60099;BME280;62818;49.394;8.686;2024-03-02T16:21:51;98890.38;;;14.88;75.72
60099;BME280;62818;49.394;8.686;2024-03-02T16:26:52;98892.38;;;14.80;76.86
60099;BME280;62818;49.394;8.686;2024-03-02T16:31:52;98869.25;;;15.81;84.01
60099;BME280;62818;49.394;8.686;2024-03-02T16:36:53;98881.22;;;15.28;75.45
60099;BME280;62818;49.394;8.686;2024-03-02T16:41:53;98877.56;;;15.01;75.89
60099;BME280;62818;49.394;8.686;2024-03-02T16:46:54;98885.56;;;14.73;79.05
60099;BME280;62818;49.394;8.686;2024-03-02T16:51:54;98884.75;;;14.72;78.63
60099;BME280;62818;49.394;8.686;2024-03-02T16:56:55;98879.53;;;14.77;77.75
60099;BME280;62818;49.394;8.686;2024-03-02T17:01:55;98880.09;;;14.79;81.21
60099;BME280;62818;49.394;8.686;2024-03-02T17:06:56;98876.78;;;14.33;80.90
60099;BME280;62818;49.394;8.686;2024-03-02T17:11:56;98873.66;;;14.36;82.13
60099;BME280;62818;49.394;8.686;2024-03-02T17:16:57;98877.72;;;14.38;81.04
60099;BME280;62818;49.394;8.686;2024-03-02T17:21:58;98873.69;;;14.52;82.69
60099;BME280;62818;49.394;8.686;2024-03-02T17:26:58;98863.00;;;15.25;83.54
60099;BME280;62818;49.394;8.686;2024-03-02T17:31:59;98864.50;;;15.66;86.21
60099;BME280;62818;49.394;8.686;2024-03-02T17:36:59;98863.50;;;15.39;85.33
60099;BME280;62818;49.394;8.686;2024-03-02T17:42:00;98872.38;;;14.95;81.58
60099;BME280;62818;49.394;8.686;2024-03-02T17:47:01;98868.66;;;14.67;81.42
60099;BME280;62818;49.394;8.686;2024-03-02T17:52:01;98859.66;;;14.57;81.25
60099;BME280;62818;49.394;8.686;2024-03-02T17:57:02;98859.25;;;14.37;82.28
60099;BME280;62818;49.394;8.686;2024-03-02T18:02:03;98847.47;;;14.33;81.71
60099;BME280;62818;49.394;8.686;2024-03-02T18:07:03;98842.31;;;14.03;85.98
60099;BME280;62818;49.394;8.686;2024-03-02T18:12:04;98814.16;;;13.95;88.53
60099;BME280;62818;49.394;8.686;2024-03-02T18:17:05;98811.88;;;13.87;91.94
60099;BME280;62818;49.394;8.686;2024-03-02T18:22:06;98798.41;;;13.94;93.65
60099;BME280;62818;49.394;8.686;2024-03-02T18:27:06;98774.28;;;13.72;96.03
60099;BME280;62818;49.394;8.686;2024-03-02T18:32:07;98775.44;;;13.65;97.41
60099;BME280;62818;49.394;8.686;2024-03-02T18:37:07;98762.81;;;13.72;97.97
60099;BME280;62818;49.394;8.686;2024-03-02T18:42:08;98767.19;;;13.78;99.44
60099;BME280;62818;49.394;8.686;2024-03-02T18:47:08;98761.91;;;13.55;100.00
60099;BME280;62818;49.394;8.686;2024-03-02T18:52:11;98746.41;;;13.40;100.00
60099;BME280;62818;49.394;8.686;2024-03-02T18:57:11;98750.66;;;13.53;100.00
60099;BME280;62818;49.394;8.686;2024-03-02T19:02:12;98759.72;;;13.28;100.00
60099;BME280;62818;49.394;8.686;2024-03-02T19:07:13;98774.88;;;13.28;100.00
60099;BME280;62818;49.394;8.686;2024-03-02T19:12:13;98798.25;;;13.26;100.00
60099;BME280;62818;49.394;8.686;2024-03-02T19:17:14;98817.31;;;13.11;100.00
60099;BME280;62818;49.394;8.686;2024-03-02T19:22:14;98826.03;;;13.30;100.00
60099;BME280;62818;49.394;8.686;2024-03-02T19:27:15;98836.78;;;13.23;100.00
60099;BME280;62818;49.394;8.686;2024-03-02T19:32:18;98840.09;;;14.51;100.00
60099;BME280;62818;49.394;8.686;2024-03-02T19:37:22;98827.31;;;14.13;100.00
60099;BME280;62818;49.394;8.686;2024-03-02T19:42:23;98809.22;;;13.06;100.00
60099;BME280;62818;49.394;8.686;2024-03-02T19:47:23;98808.56;;;13.46;100.00
60099;BME280;62818;49.394;8.686;2024-03-02T19:52:24;98783.91;;;12.74;100.00
60099;BME280;62818;49.394;8.686;2024-03-02T19:57:24;98783.78;;;12.69;100.00
60099;BME280;62818;49.394;8.686;2024-03-02T20:02:25;98797.78;;;12.76;100.00
60099;BME280;62818;49.394;8.686;2024-03-02T20:07:27;98776.09;;;12.49;100.00
60099;BME280;62818;49.394;8.686;2024-03-02T20:12:34;98772.19;;;12.52;100.00
60099;BME280;62818;49.394;8.686;2024-03-02T20:17:35;98760.34;;;12.66;100.00
60099;BME280;62818;49.394;8.686;2024-03-02T20:22:35;98758.84;;;12.40;100.00
60099;BME280;62818;49.394;8.686;2024-03-02T20:27:36;98754.34;;;12.41;100.00
60099;BME280;62818;49.394;8.686;2024-03-02T20:32:36;98750.97;;;12.63;100.00
60099;BME280;62818;49.394;8.686;2024-03-02T20:37:38;98740.28;;;12.52;100.00
60099;BME280;62818;49.394;8.686;2024-03-02T20:42:38;98732.66;;;12.44;100.00
60099;BME280;62818;49.394;8.686;2024-03-02T20:47:39;98732.19;;;12.47;100.00
60099;BME280;62818;49.394;8.686;2024-03-02T20:52:39;98730.38;;;12.59;100.00
60099;BME280;62818;49.394;8.686;2024-03-02T20:57:40;98721.75;;;12.34;100.00
60099;BME280;62818;49.394;8.686;2024-03-02T21:02:41;98716.34;;;12.29;100.00
60099;BME280;62818;49.394;8.686;2024-03-02T21:07:41;98702.47;;;12.27;100.00
60099;BME280;62818;49.394;8.686;2024-03-02T21:12:41;98704.94;;;12.10;100.00
60099;BME280;62818;49.394;8.686;2024-03-02T21:17:42;98715.22;;;12.07;100.00
60099;BME280;62818;49.394;8.686;2024-03-02T21:22:42;98717.31;;;11.86;100.00
60099;BME280;62818;49.394;8.686;2024-03-02T21:27:47;98704.03;;;11.86;100.00
60099;BME280;62818;49.394;8.686;2024-03-02T21:32:54;98724.97;;;11.76;100.00
60099;BME280;62818;49.394;8.686;2024-03-02T21:37:55;98731.03;;;11.83;100.00
60099;BME280;62818;49.394;8.686;2024-03-02T21:42:58;98730.09;;;11.78;100.00
60099;BME280;62818;49.394;8.686;2024-03-02T21:47:59;98739.97;;;11.89;100.00
60099;BME280;62818;49.394;8.686;2024-03-02T21:53:01;98721.81;;;11.86;100.00
60099;BME280;62818;49.394;8.686;2024-03-02T21:58:03;98746.94;;;11.65;100.00
60099;BME280;62818;49.394;8.686;2024-03-02T22:03:04;98734.56;;;11.96;100.00
60099;BME280;62818;49.394;8.686;2024-03-02T22:08:06;98733.66;;;11.65;100.00
60099;BME280;62818;49.394;8.686;2024-03-02T22:13:07;98714.75;;;12.10;100.00
60099;BME280;62818;49.394;8.686;2024-03-02T22:18:07;98716.56;;;12.39;100.00
60099;BME280;62818;49.394;8.686;2024-03-02T22:23:11;98742.44;;;12.02;100.00
60099;BME280;62818;49.394;8.686;2024-03-02T22:28:12;98757.41;;;11.60;100.00
60099;BME280;62818;49.394;8.686;2024-03-02T22:33:18;98756.97;;;11.45;100.00
60099;BME280;62818;49.394;8.686;2024-03-02T22:38:22;98767.66;;;11.39;100.00
60099;BME280;62818;49.394;8.686;2024-03-02T22:43:22;98791.03;;;11.66;100.00
60099;BME280;62818;49.394;8.686;2024-03-02T22:48:32;98789.56;;;12.25;100.00
60099;BME280;62818;49.394;8.686;2024-03-02T22:53:33;98775.56;;;12.00;100.00
60099;BME280;62818;49.394;8.686;2024-03-02T22:58:37;98760.25;;;11.23;100.00
60099;BME280;62818;49.394;8.686;2024-03-02T23:03:39;98756.97;;;11.02;100.00
60099;BME280;62818;49.394;8.686;2024-03-02T23:08:40;98743.50;;;11.04;100.00
60099;BME280;62818;49.394;8.686;2024-03-02T23:13:40;98737.47;;;11.15;100.00
60099;BME280;62818;49.394;8.686;2024-03-02T23:18:41;98742.50;;;11.23;100.00
60099;BME280;62818;49.394;8.686;2024-03-02T23:23:41;98742.50;;;11.23;100.00
60099;BME280;62818;49.394;8.686;2024-03-02T23:28:41;98742.38;;;11.36;100.00
60099;BME280;62818;49.394;8.686;2024-03-02T23:33:42;98740.06;;;11.22;100.00
60099;BME280;62818;49.394;8.686;2024-03-02T23:38:47;98742.81;;;11.33;100.00
60099;BME280;62818;49.394;8.686;2024-03-02T23:43:47;98733.19;;;11.39;100.00
60099;BME280;62818;49.394;8.686;2024-03-02T23:48:48;98738.66;;;11.01;100.00
60099;BME280;62818;49.394;8.686;2024-03-02T23:53:48;98725.53;;;11.06;100.00
60099;BME280;62818;49.394;8.686;2024-03-02T23:58:49;98727.81;;;10.78;100.00
